sensor_id;sensor_type;location;lat;lon;timestamp;P1;durP1;ratioP1;P2;durP2;ratioP2
151;SDS011;68;48.792;9.164;2023-05-29T00:00:52;28.77;;;11.10;;
151;SDS011;68;48.792;9.164;2023-05-29T00:03:19;28.23;;;10.80;;
151;SDS011;68;48.792;9.164;2023-05-29T00:05:46;22.57;;;8.63;;
151;SDS011;68;48.792;9.164;2023-05-29T00:08:14;21.60;;;9.03;;
151;SDS011;68;48.792;9.164;2023-05-29T00:10:42;21.90;;;9.47;;
151;SDS011;68;48.792;9.164;2023-05-29T00:13:08;23.70;;;9.90;;
151;SDS011;68;48.792;9.164;2023-05-29T00:15:35;20.90;;;8.90;;
151;SDS011;68;48.792;9.164;2023-05-29T00:18:02;25.13;;;9.57;;
151;SDS011;68;48.792;9.164;2023-05-29T00:20:29;24.50;;;9.53;;
151;SDS011;68;48.792;9.164;2023-05-29T00:22:59;22.70;;;9.20;;
151;SDS011;68;48.792;9.164;2023-05-29T00:25:26;24.50;;;9.33;;
151;SDS011;68;48.792;9.164;2023-05-29T00:27:55;23.57;;;9.40;;
151;SDS011;68;48.792;9.164;2023-05-29T00:30:21;20.33;;;8.77;;
151;SDS011;68;48.792;9.164;2023-05-29T00:32:48;21.77;;;8.77;;
151;SDS011;68;48.792;9.164;2023-05-29T00:35:17;26.63;;;11.23;;
151;SDS011;68;48.792;9.164;2023-05-29T00:37:43;22.37;;;9.90;;
151;SDS011;68;48.792;9.164;2023-05-29T00:40:10;25.30;;;10.27;;
151;SDS011;68;48.792;9.164;2023-05-29T00:42:37;29.10;;;9.97;;
151;SDS011;68;48.792;9.164;2023-05-29T00:45:06;25.43;;;9.53;;
151;SDS011;68;48.792;9.164;2023-05-29T00:47:33;23.60;;;9.90;;
151;SDS011;68;48.792;9.164;2023-05-29T00:50:00;23.97;;;9.87;;
151;SDS011;68;48.792;9.164;2023-05-29T00:52:28;26.43;;;10.20;;
151;SDS011;68;48.792;9.164;2023-05-29T00:54:55;24.17;;;10.03;;
151;SDS011;68;48.792;9.164;2023-05-29T00:57:25;23.90;;;10.30;;
151;SDS011;68;48.792;9.164;2023-05-29T00:59:53;22.47;;;9.70;;
151;SDS011;68;48.792;9.164;2023-05-29T01:02:22;24.77;;;9.93;;
151;SDS011;68;48.792;9.164;2023-05-29T01:04:49;28.00;;;10.60;;
151;SDS011;68;48.792;9.164;2023-05-29T01:07:19;29.50;;;9.90;;
151;SDS011;68;48.792;9.164;2023-05-29T01:09:46;25.17;;;10.03;;
151;SDS011;68;48.792;9.164;2023-05-29T01:12:15;23.67;;;10.07;;
151;SDS011;68;48.792;9.164;2023-05-29T01:14:52;25.90;;;10.30;;
151;SDS011;68;48.792;9.164;2023-05-29T01:17:35;24.97;;;10.57;;
151;SDS011;68;48.792;9.164;2023-05-29T01:20:11;25.97;;;10.67;;
151;SDS011;68;48.792;9.164;2023-05-29T01:25:58;23.67;;;10.10;;
151;SDS011;68;48.792;9.164;2023-05-29T01:28:36;26.17;;;10.50;;
151;SDS011;68;48.792;9.164;2023-05-29T01:31:07;25.10;;;10.30;;
151;SDS011;68;48.792;9.164;2023-05-29T01:33:34;28.10;;;11.10;;
151;SDS011;68;48.792;9.164;2023-05-29T01:36:05;22.50;;;10.03;;
151;SDS011;68;48.792;9.164;2023-05-29T01:38:33;28.67;;;10.63;;
151;SDS011;68;48.792;9.164;2023-05-29T01:40:59;23.20;;;10.10;;
151;SDS011;68;48.792;9.164;2023-05-29T01:43:27;21.90;;;10.17;;
151;SDS011;68;48.792;9.164;2023-05-29T01:45:55;24.53;;;10.10;;
151;SDS011;68;48.792;9.164;2023-05-29T01:48:23;26.60;;;11.07;;
151;SDS011;68;48.792;9.164;2023-05-29T01:50:51;25.17;;;10.53;;
151;SDS011;68;48.792;9.164;2023-05-29T01:53:18;24.50;;;10.50;;
151;SDS011;68;48.792;9.164;2023-05-29T01:55:45;27.03;;;10.67;;
151;SDS011;68;48.792;9.164;2023-05-29T01:58:12;24.33;;;11.33;;
151;SDS011;68;48.792;9.164;2023-05-29T02:00:41;25.97;;;11.53;;
151;SDS011;68;48.792;9.164;2023-05-29T02:03:09;23.33;;;10.93;;
151;SDS011;68;48.792;9.164;2023-05-29T02:05:36;24.37;;;11.20;;
151;SDS011;68;48.792;9.164;2023-05-29T02:08:03;21.60;;;10.67;;
151;SDS011;68;48.792;9.164;2023-05-29T02:10:30;23.90;;;12.10;;
151;SDS011;68;48.792;9.164;2023-05-29T02:12:57;21.80;;;10.00;;
151;SDS011;68;48.792;9.164;2023-05-29T02:15:24;22.53;;;11.77;;
151;SDS011;68;48.792;9.164;2023-05-29T02:17:50;27.63;;;10.47;;
151;SDS011;68;48.792;9.164;2023-05-29T02:20:19;23.70;;;11.10;;
151;SDS011;68;48.792;9.164;2023-05-29T02:22:45;25.93;;;10.23;;
151;SDS011;68;48.792;9.164;2023-05-29T02:25:12;22.80;;;10.37;;
151;SDS011;68;48.792;9.164;2023-05-29T02:27:39;33.70;;;11.00;;
151;SDS011;68;48.792;9.164;2023-05-29T02:30:06;25.93;;;11.37;;
151;SDS011;68;48.792;9.164;2023-05-29T02:32:34;30.87;;;10.70;;
151;SDS011;68;48.792;9.164;2023-05-29T02:35:01;24.80;;;11.80;;
151;SDS011;68;48.792;9.164;2023-05-29T02:37:29;21.50;;;10.57;;
151;SDS011;68;48.792;9.164;2023-05-29T02:39:55;24.30;;;9.87;;
151;SDS011;68;48.792;9.164;2023-05-29T02:42:22;21.77;;;10.10;;
151;SDS011;68;48.792;9.164;2023-05-29T02:44:49;22.50;;;9.90;;
151;SDS011;68;48.792;9.164;2023-05-29T02:47:16;23.47;;;10.50;;
151;SDS011;68;48.792;9.164;2023-05-29T02:49:42;27.50;;;10.60;;
151;SDS011;68;48.792;9.164;2023-05-29T02:52:09;23.00;;;10.07;;
151;SDS011;68;48.792;9.164;2023-05-29T02:54:37;30.13;;;10.93;;
151;SDS011;68;48.792;9.164;2023-05-29T02:57:04;30.13;;;10.63;;
151;SDS011;68;48.792;9.164;2023-05-29T02:59:31;26.27;;;11.60;;
151;SDS011;68;48.792;9.164;2023-05-29T03:01:58;27.67;;;12.17;;
151;SDS011;68;48.792;9.164;2023-05-29T03:04:25;23.45;;;10.93;;
151;SDS011;68;48.792;9.164;2023-05-29T03:06:52;22.73;;;10.88;;
151;SDS011;68;48.792;9.164;2023-05-29T03:09:19;24.45;;;12.13;;
151;SDS011;68;48.792;9.164;2023-05-29T03:11:47;22.83;;;10.10;;
151;SDS011;68;48.792;9.164;2023-05-29T03:14:15;24.80;;;10.20;;
151;SDS011;68;48.792;9.164;2023-05-29T03:16:43;24.08;;;10.02;;
151;SDS011;68;48.792;9.164;2023-05-29T03:19:10;25.13;;;11.60;;
151;SDS011;68;48.792;9.164;2023-05-29T03:21:37;21.63;;;10.67;;
151;SDS011;68;48.792;9.164;2023-05-29T03:24:04;26.03;;;10.87;;
151;SDS011;68;48.792;9.164;2023-05-29T03:26:31;26.73;;;11.95;;
151;SDS011;68;48.792;9.164;2023-05-29T03:28:59;33.10;;;10.80;;
151;SDS011;68;48.792;9.164;2023-05-29T03:31:26;27.10;;;11.50;;
151;SDS011;68;48.792;9.164;2023-05-29T03:33:53;27.07;;;10.90;;
151;SDS011;68;48.792;9.164;2023-05-29T03:36:20;30.03;;;10.60;;
151;SDS011;68;48.792;9.164;2023-05-29T03:38:47;24.67;;;10.47;;
151;SDS011;68;48.792;9.164;2023-05-29T03:41:13;25.23;;;11.90;;
151;SDS011;68;48.792;9.164;2023-05-29T03:43:40;23.38;;;11.20;;
151;SDS011;68;48.792;9.164;2023-05-29T03:46:08;24.63;;;10.20;;
151;SDS011;68;48.792;9.164;2023-05-29T03:48:35;22.73;;;10.48;;
151;SDS011;68;48.792;9.164;2023-05-29T03:51:02;26.73;;;10.70;;
151;SDS011;68;48.792;9.164;2023-05-29T03:53:30;27.67;;;11.47;;
151;SDS011;68;48.792;9.164;2023-05-29T03:55:57;23.63;;;10.17;;
151;SDS011;68;48.792;9.164;2023-05-29T03:58:23;26.40;;;11.80;;
151;SDS011;68;48.792;9.164;2023-05-29T04:00:50;24.70;;;10.60;;
151;SDS011;68;48.792;9.164;2023-05-29T04:03:18;28.80;;;10.35;;
151;SDS011;68;48.792;9.164;2023-05-29T04:05:45;20.27;;;10.40;;
151;SDS011;68;48.792;9.164;2023-05-29T04:08:12;23.30;;;10.20;;
151;SDS011;68;48.792;9.164;2023-05-29T04:10:38;24.70;;;10.93;;
151;SDS011;68;48.792;9.164;2023-05-29T04:13:05;24.38;;;10.80;;
151;SDS011;68;48.792;9.164;2023-05-29T04:15:32;23.67;;;10.97;;
151;SDS011;68;48.792;9.164;2023-05-29T04:17:59;24.67;;;10.52;;
151;SDS011;68;48.792;9.164;2023-05-29T04:20:27;23.07;;;11.37;;
151;SDS011;68;48.792;9.164;2023-05-29T04:22:54;28.97;;;12.30;;
151;SDS011;68;48.792;9.164;2023-05-29T04:25:21;24.40;;;10.98;;
151;SDS011;68;48.792;9.164;2023-05-29T04:27:48;26.37;;;9.87;;
151;SDS011;68;48.792;9.164;2023-05-29T04:30:15;23.67;;;11.07;;
151;SDS011;68;48.792;9.164;2023-05-29T04:32:42;23.63;;;10.40;;
151;SDS011;68;48.792;9.164;2023-05-29T04:35:09;22.30;;;9.90;;
151;SDS011;68;48.792;9.164;2023-05-29T04:37:37;28.70;;;10.43;;
151;SDS011;68;48.792;9.164;2023-05-29T04:40:05;23.10;;;10.30;;
151;SDS011;68;48.792;9.164;2023-05-29T04:42:34;24.07;;;10.13;;
151;SDS011;68;48.792;9.164;2023-05-29T04:45:01;23.43;;;9.80;;
151;SDS011;68;48.792;9.164;2023-05-29T04:47:28;23.70;;;10.83;;
151;SDS011;68;48.792;9.164;2023-05-29T04:49:58;25.63;;;12.27;;
151;SDS011;68;48.792;9.164;2023-05-29T04:52:25;24.43;;;10.87;;
151;SDS011;68;48.792;9.164;2023-05-29T04:54:53;22.57;;;9.73;;
151;SDS011;68;48.792;9.164;2023-05-29T04:57:20;25.50;;;10.13;;
151;SDS011;68;48.792;9.164;2023-05-29T04:59:46;21.17;;;10.87;;
151;SDS011;68;48.792;9.164;2023-05-29T05:02:13;21.90;;;10.23;;
151;SDS011;68;48.792;9.164;2023-05-29T05:04:40;23.13;;;10.60;;
151;SDS011;68;48.792;9.164;2023-05-29T05:07:08;24.50;;;10.70;;
151;SDS011;68;48.792;9.164;2023-05-29T05:09:35;24.03;;;10.70;;
151;SDS011;68;48.792;9.164;2023-05-29T05:12:04;27.83;;;10.70;;
151;SDS011;68;48.792;9.164;2023-05-29T05:14:31;22.13;;;10.43;;
151;SDS011;68;48.792;9.164;2023-05-29T05:16:58;27.00;;;11.00;;
151;SDS011;68;48.792;9.164;2023-05-29T05:19:24;26.90;;;10.80;;
151;SDS011;68;48.792;9.164;2023-05-29T05:21:51;23.10;;;10.00;;
151;SDS011;68;48.792;9.164;2023-05-29T05:24:18;22.50;;;10.67;;
151;SDS011;68;48.792;9.164;2023-05-29T05:26:45;21.77;;;9.97;;
151;SDS011;68;48.792;9.164;2023-05-29T05:29:13;20.70;;;10.33;;
151;SDS011;68;48.792;9.164;2023-05-29T05:31:39;24.07;;;9.60;;
151;SDS011;68;48.792;9.164;2023-05-29T05:34:06;21.20;;;9.00;;
151;SDS011;68;48.792;9.164;2023-05-29T05:36:33;22.87;;;9.30;;
151;SDS011;68;48.792;9.164;2023-05-29T05:39:01;20.77;;;9.63;;
151;SDS011;68;48.792;9.164;2023-05-29T05:41:28;30.30;;;10.50;;
151;SDS011;68;48.792;9.164;2023-05-29T05:43:55;26.48;;;10.50;;
151;SDS011;68;48.792;9.164;2023-05-29T05:46:23;24.47;;;11.23;;
151;SDS011;68;48.792;9.164;2023-05-29T05:48:50;20.87;;;8.77;;
151;SDS011;68;48.792;9.164;2023-05-29T05:51:17;21.33;;;9.87;;
151;SDS011;68;48.792;9.164;2023-05-29T05:53:44;20.83;;;9.60;;
151;SDS011;68;48.792;9.164;2023-05-29T05:56:11;23.97;;;10.50;;
151;SDS011;68;48.792;9.164;2023-05-29T05:58:38;22.03;;;8.67;;
151;SDS011;68;48.792;9.164;2023-05-29T06:01:05;23.20;;;9.83;;
151;SDS011;68;48.792;9.164;2023-05-29T06:03:34;22.70;;;8.77;;
151;SDS011;68;48.792;9.164;2023-05-29T06:06:02;22.03;;;9.87;;
151;SDS011;68;48.792;9.164;2023-05-29T06:08:29;20.97;;;9.60;;
151;SDS011;68;48.792;9.164;2023-05-29T06:10:56;25.53;;;9.07;;
151;SDS011;68;48.792;9.164;2023-05-29T06:13:23;19.00;;;9.03;;
151;SDS011;68;48.792;9.164;2023-05-29T06:15:50;22.20;;;8.50;;
151;SDS011;68;48.792;9.164;2023-05-29T06:18:16;22.33;;;9.77;;
151;SDS011;68;48.792;9.164;2023-05-29T06:20:45;24.23;;;10.30;;
151;SDS011;68;48.792;9.164;2023-05-29T06:23:11;24.17;;;9.33;;
151;SDS011;68;48.792;9.164;2023-05-29T06:25:38;22.00;;;10.10;;
151;SDS011;68;48.792;9.164;2023-05-29T06:28:06;21.97;;;9.57;;
151;SDS011;68;48.792;9.164;2023-05-29T06:30:32;23.60;;;10.17;;
151;SDS011;68;48.792;9.164;2023-05-29T06:32:59;23.13;;;9.07;;
151;SDS011;68;48.792;9.164;2023-05-29T06:35:26;23.27;;;9.17;;
151;SDS011;68;48.792;9.164;2023-05-29T06:37:54;28.40;;;10.27;;
151;SDS011;68;48.792;9.164;2023-05-29T06:40:21;23.10;;;9.40;;
151;SDS011;68;48.792;9.164;2023-05-29T06:42:48;22.77;;;9.87;;
151;SDS011;68;48.792;9.164;2023-05-29T06:45:15;21.70;;;9.03;;
151;SDS011;68;48.792;9.164;2023-05-29T06:47:42;23.80;;;9.90;;
151;SDS011;68;48.792;9.164;2023-05-29T06:50:09;18.50;;;7.83;;
151;SDS011;68;48.792;9.164;2023-05-29T06:52:36;21.93;;;8.97;;
151;SDS011;68;48.792;9.164;2023-05-29T06:55:05;22.83;;;9.40;;
151;SDS011;68;48.792;9.164;2023-05-29T06:57:32;24.37;;;9.80;;
151;SDS011;68;48.792;9.164;2023-05-29T06:59:59;22.23;;;9.57;;
151;SDS011;68;48.792;9.164;2023-05-29T07:02:26;25.30;;;9.77;;
151;SDS011;68;48.792;9.164;2023-05-29T07:04:53;23.00;;;9.87;;
151;SDS011;68;48.792;9.164;2023-05-29T07:07:19;27.73;;;9.40;;
151;SDS011;68;48.792;9.164;2023-05-29T07:09:46;23.07;;;9.60;;
151;SDS011;68;48.792;9.164;2023-05-29T07:12:14;24.53;;;9.30;;
151;SDS011;68;48.792;9.164;2023-05-29T07:14:41;19.73;;;8.60;;
151;SDS011;68;48.792;9.164;2023-05-29T07:17:07;22.50;;;9.50;;
151;SDS011;68;48.792;9.164;2023-05-29T07:19:34;22.00;;;9.17;;
151;SDS011;68;48.792;9.164;2023-05-29T07:22:01;25.27;;;8.77;;
151;SDS011;68;48.792;9.164;2023-05-29T07:24:28;23.53;;;8.63;;
151;SDS011;68;48.792;9.164;2023-05-29T07:26:55;20.33;;;7.97;;
151;SDS011;68;48.792;9.164;2023-05-29T07:29:23;23.53;;;8.20;;
151;SDS011;68;48.792;9.164;2023-05-29T07:31:50;21.93;;;8.10;;
151;SDS011;68;48.792;9.164;2023-05-29T07:34:17;21.87;;;8.27;;
151;SDS011;68;48.792;9.164;2023-05-29T07:36:57;21.63;;;8.20;;
151;SDS011;68;48.792;9.164;2023-05-29T07:39:25;21.87;;;8.20;;
151;SDS011;68;48.792;9.164;2023-05-29T07:41:52;25.43;;;8.97;;
151;SDS011;68;48.792;9.164;2023-05-29T07:44:19;22.40;;;8.10;;
151;SDS011;68;48.792;9.164;2023-05-29T07:46:47;29.33;;;8.60;;
151;SDS011;68;48.792;9.164;2023-05-29T07:49:14;27.60;;;9.37;;
151;SDS011;68;48.792;9.164;2023-05-29T07:51:41;22.63;;;8.23;;
151;SDS011;68;48.792;9.164;2023-05-29T07:54:08;20.00;;;7.77;;
151;SDS011;68;48.792;9.164;2023-05-29T07:56:35;26.93;;;9.00;;
151;SDS011;68;48.792;9.164;2023-05-29T07:59:02;19.33;;;8.40;;
151;SDS011;68;48.792;9.164;2023-05-29T08:01:29;20.50;;;8.07;;
151;SDS011;68;48.792;9.164;2023-05-29T08:03:57;21.23;;;8.50;;
151;SDS011;68;48.792;9.164;2023-05-29T08:06:24;38.47;;;7.83;;
151;SDS011;68;48.792;9.164;2023-05-29T08:08:50;22.43;;;8.37;;
151;SDS011;68;48.792;9.164;2023-05-29T08:11:18;22.70;;;8.47;;
151;SDS011;68;48.792;9.164;2023-05-29T08:13:44;21.00;;;7.90;;
151;SDS011;68;48.792;9.164;2023-05-29T08:16:11;20.67;;;8.00;;
151;SDS011;68;48.792;9.164;2023-05-29T08:18:39;21.50;;;7.60;;
151;SDS011;68;48.792;9.164;2023-05-29T08:21:07;22.90;;;8.17;;
151;SDS011;68;48.792;9.164;2023-05-29T08:23:35;25.03;;;8.30;;
151;SDS011;68;48.792;9.164;2023-05-29T08:26:02;22.73;;;8.47;;
151;SDS011;68;48.792;9.164;2023-05-29T08:28:29;21.10;;;7.50;;
151;SDS011;68;48.792;9.164;2023-05-29T08:30:55;23.13;;;7.97;;
151;SDS011;68;48.792;9.164;2023-05-29T08:33:22;24.13;;;8.30;;
151;SDS011;68;48.792;9.164;2023-05-29T08:35:49;22.20;;;7.80;;
151;SDS011;68;48.792;9.164;2023-05-29T08:38:17;20.73;;;8.00;;
151;SDS011;68;48.792;9.164;2023-05-29T08:40:46;21.23;;;7.60;;
151;SDS011;68;48.792;9.164;2023-05-29T08:43:14;23.37;;;8.10;;
151;SDS011;68;48.792;9.164;2023-05-29T08:45:43;21.37;;;8.10;;
151;SDS011;68;48.792;9.164;2023-05-29T08:48:11;22.87;;;8.80;;
151;SDS011;68;48.792;9.164;2023-05-29T08:50:39;21.37;;;7.80;;
151;SDS011;68;48.792;9.164;2023-05-29T08:53:12;21.33;;;7.93;;
151;SDS011;68;48.792;9.164;2023-05-29T08:55:41;21.73;;;7.70;;
151;SDS011;68;48.792;9.164;2023-05-29T08:58:08;26.27;;;8.87;;
151;SDS011;68;48.792;9.164;2023-05-29T09:00:37;20.90;;;8.03;;
151;SDS011;68;48.792;9.164;2023-05-29T09:03:06;24.43;;;7.37;;
151;SDS011;68;48.792;9.164;2023-05-29T09:05:33;20.57;;;8.10;;
151;SDS011;68;48.792;9.164;2023-05-29T09:08:04;25.60;;;8.60;;
151;SDS011;68;48.792;9.164;2023-05-29T09:10:32;20.13;;;7.77;;
151;SDS011;68;48.792;9.164;2023-05-29T09:13:00;20.73;;;7.77;;
151;SDS011;68;48.792;9.164;2023-05-29T09:15:27;20.10;;;7.43;;
151;SDS011;68;48.792;9.164;2023-05-29T09:17:54;25.03;;;7.90;;
151;SDS011;68;48.792;9.164;2023-05-29T09:20:23;24.03;;;7.47;;
151;SDS011;68;48.792;9.164;2023-05-29T09:22:54;25.13;;;7.60;;
151;SDS011;68;48.792;9.164;2023-05-29T09:25:22;20.23;;;8.20;;
151;SDS011;68;48.792;9.164;2023-05-29T09:27:52;24.40;;;7.20;;
151;SDS011;68;48.792;9.164;2023-05-29T09:30:38;20.33;;;8.07;;
151;SDS011;68;48.792;9.164;2023-05-29T09:33:07;20.90;;;7.67;;
151;SDS011;68;48.792;9.164;2023-05-29T09:35:35;19.87;;;7.53;;
151;SDS011;68;48.792;9.164;2023-05-29T09:38:02;23.43;;;8.30;;
151;SDS011;68;48.792;9.164;2023-05-29T09:40:30;27.17;;;8.67;;
151;SDS011;68;48.792;9.164;2023-05-29T09:43:01;21.10;;;7.40;;
151;SDS011;68;48.792;9.164;2023-05-29T09:45:32;22.50;;;8.43;;
151;SDS011;68;48.792;9.164;2023-05-29T09:48:03;23.63;;;8.03;;
151;SDS011;68;48.792;9.164;2023-05-29T09:50:31;23.27;;;8.10;;
151;SDS011;68;48.792;9.164;2023-05-29T09:52:58;22.17;;;7.70;;
151;SDS011;68;48.792;9.164;2023-05-29T09:55:27;18.63;;;6.63;;
151;SDS011;68;48.792;9.164;2023-05-29T09:57:56;21.70;;;7.93;;
151;SDS011;68;48.792;9.164;2023-05-29T10:00:24;21.43;;;7.37;;
151;SDS011;68;48.792;9.164;2023-05-29T10:02:52;22.53;;;7.27;;
151;SDS011;68;48.792;9.164;2023-05-29T10:05:20;22.80;;;7.30;;
151;SDS011;68;48.792;9.164;2023-05-29T10:07:47;20.03;;;7.00;;
151;SDS011;68;48.792;9.164;2023-05-29T10:10:18;24.20;;;7.53;;
151;SDS011;68;48.792;9.164;2023-05-29T10:12:47;20.23;;;6.40;;
151;SDS011;68;48.792;9.164;2023-05-29T10:15:15;23.20;;;7.53;;
151;SDS011;68;48.792;9.164;2023-05-29T10:17:49;20.07;;;6.57;;
151;SDS011;68;48.792;9.164;2023-05-29T10:20:18;19.00;;;5.93;;
151;SDS011;68;48.792;9.164;2023-05-29T10:22:49;18.17;;;5.90;;
151;SDS011;68;48.792;9.164;2023-05-29T10:25:18;19.43;;;6.20;;
151;SDS011;68;48.792;9.164;2023-05-29T10:27:46;22.97;;;7.37;;
151;SDS011;68;48.792;9.164;2023-05-29T10:30:15;20.50;;;5.90;;
151;SDS011;68;48.792;9.164;2023-05-29T10:33:17;22.83;;;6.53;;
151;SDS011;68;48.792;9.164;2023-05-29T10:36:04;20.60;;;6.50;;
151;SDS011;68;48.792;9.164;2023-05-29T10:38:40;20.87;;;5.60;;
151;SDS011;68;48.792;9.164;2023-05-29T10:43:58;20.33;;;6.53;;
151;SDS011;68;48.792;9.164;2023-05-29T10:49:30;18.90;;;6.53;;
151;SDS011;68;48.792;9.164;2023-05-29T10:51:59;19.77;;;6.60;;
151;SDS011;68;48.792;9.164;2023-05-29T10:54:26;22.37;;;7.10;;
151;SDS011;68;48.792;9.164;2023-05-29T10:56:55;19.70;;;6.07;;
151;SDS011;68;48.792;9.164;2023-05-29T10:59:22;20.70;;;6.20;;
151;SDS011;68;48.792;9.164;2023-05-29T11:01:52;19.13;;;6.07;;
151;SDS011;68;48.792;9.164;2023-05-29T11:04:29;24.63;;;6.20;;
151;SDS011;68;48.792;9.164;2023-05-29T11:06:59;20.60;;;6.30;;
151;SDS011;68;48.792;9.164;2023-05-29T11:09:29;20.27;;;6.37;;
151;SDS011;68;48.792;9.164;2023-05-29T11:12:10;18.30;;;5.57;;
151;SDS011;68;48.792;9.164;2023-05-29T11:14:44;20.57;;;6.10;;
151;SDS011;68;48.792;9.164;2023-05-29T11:19:57;22.87;;;6.50;;
151;SDS011;68;48.792;9.164;2023-05-29T11:22:33;22.33;;;5.70;;
151;SDS011;68;48.792;9.164;2023-05-29T11:25:13;21.80;;;5.87;;
151;SDS011;68;48.792;9.164;2023-05-29T11:27:40;26.70;;;6.23;;
151;SDS011;68;48.792;9.164;2023-05-29T11:30:07;22.13;;;6.07;;
151;SDS011;68;48.792;9.164;2023-05-29T11:32:35;23.43;;;5.60;;
151;SDS011;68;48.792;9.164;2023-05-29T11:35:03;21.73;;;5.73;;
151;SDS011;68;48.792;9.164;2023-05-29T11:37:35;19.20;;;5.70;;
151;SDS011;68;48.792;9.164;2023-05-29T11:40:05;19.53;;;5.70;;
151;SDS011;68;48.792;9.164;2023-05-29T11:42:33;21.17;;;6.20;;
151;SDS011;68;48.792;9.164;2023-05-29T11:45:09;18.93;;;5.50;;
151;SDS011;68;48.792;9.164;2023-05-29T11:47:50;22.73;;;5.77;;
151;SDS011;68;48.792;9.164;2023-05-29T11:50:18;20.80;;;5.80;;
151;SDS011;68;48.792;9.164;2023-05-29T11:52:47;21.00;;;5.10;;
151;SDS011;68;48.792;9.164;2023-05-29T11:55:14;24.70;;;5.47;;
151;SDS011;68;48.792;9.164;2023-05-29T11:57:41;17.73;;;5.60;;
151;SDS011;68;48.792;9.164;2023-05-29T12:00:11;17.73;;;5.17;;
151;SDS011;68;48.792;9.164;2023-05-29T12:02:39;18.07;;;5.93;;
151;SDS011;68;48.792;9.164;2023-05-29T12:05:07;18.57;;;5.80;;
151;SDS011;68;48.792;9.164;2023-05-29T12:07:34;18.80;;;5.23;;
151;SDS011;68;48.792;9.164;2023-05-29T12:10:09;18.57;;;5.20;;
151;SDS011;68;48.792;9.164;2023-05-29T12:12:36;18.88;;;5.40;;
151;SDS011;68;48.792;9.164;2023-05-29T12:15:04;18.40;;;5.20;;
151;SDS011;68;48.792;9.164;2023-05-29T12:17:33;20.60;;;5.63;;
151;SDS011;68;48.792;9.164;2023-05-29T12:20:00;19.73;;;4.93;;
151;SDS011;68;48.792;9.164;2023-05-29T12:22:32;19.10;;;5.07;;
151;SDS011;68;48.792;9.164;2023-05-29T12:25:03;24.37;;;5.03;;
151;SDS011;68;48.792;9.164;2023-05-29T12:27:35;17.77;;;4.80;;
151;SDS011;68;48.792;9.164;2023-05-29T12:30:08;18.20;;;5.10;;
151;SDS011;68;48.792;9.164;2023-05-29T12:32:36;19.37;;;4.70;;
151;SDS011;68;48.792;9.164;2023-05-29T12:35:12;18.37;;;5.30;;
151;SDS011;68;48.792;9.164;2023-05-29T12:37:43;19.50;;;5.07;;
151;SDS011;68;48.792;9.164;2023-05-29T12:40:14;17.57;;;4.97;;
151;SDS011;68;48.792;9.164;2023-05-29T12:42:43;18.07;;;4.63;;
151;SDS011;68;48.792;9.164;2023-05-29T12:45:11;18.20;;;5.67;;
151;SDS011;68;48.792;9.164;2023-05-29T12:47:38;20.90;;;5.03;;
151;SDS011;68;48.792;9.164;2023-05-29T12:50:24;19.17;;;5.60;;
151;SDS011;68;48.792;9.164;2023-05-29T12:52:55;23.90;;;5.60;;
151;SDS011;68;48.792;9.164;2023-05-29T12:55:26;21.23;;;5.60;;
151;SDS011;68;48.792;9.164;2023-05-29T12:57:55;19.20;;;5.47;;
151;SDS011;68;48.792;9.164;2023-05-29T13:00:22;18.00;;;5.60;;
151;SDS011;68;48.792;9.164;2023-05-29T13:02:49;21.57;;;6.10;;
151;SDS011;68;48.792;9.164;2023-05-29T13:05:17;18.90;;;5.47;;
151;SDS011;68;48.792;9.164;2023-05-29T13:07:47;17.87;;;5.23;;
151;SDS011;68;48.792;9.164;2023-05-29T13:10:14;23.03;;;5.80;;
151;SDS011;68;48.792;9.164;2023-05-29T13:12:41;18.50;;;5.80;;
151;SDS011;68;48.792;9.164;2023-05-29T13:15:11;18.60;;;5.40;;
151;SDS011;68;48.792;9.164;2023-05-29T13:17:39;18.73;;;5.30;;
151;SDS011;68;48.792;9.164;2023-05-29T13:20:07;20.47;;;5.80;;
151;SDS011;68;48.792;9.164;2023-05-29T13:22:35;20.23;;;5.33;;
151;SDS011;68;48.792;9.164;2023-05-29T13:25:02;17.70;;;5.13;;
151;SDS011;68;48.792;9.164;2023-05-29T13:27:31;27.73;;;5.37;;
151;SDS011;68;48.792;9.164;2023-05-29T13:29:58;17.63;;;5.10;;
151;SDS011;68;48.792;9.164;2023-05-29T13:32:26;26.40;;;5.47;;
151;SDS011;68;48.792;9.164;2023-05-29T13:34:53;19.13;;;5.50;;
151;SDS011;68;48.792;9.164;2023-05-29T13:37:19;19.90;;;5.63;;
151;SDS011;68;48.792;9.164;2023-05-29T13:39:46;18.03;;;5.63;;
151;SDS011;68;48.792;9.164;2023-05-29T13:42:13;18.07;;;5.70;;
151;SDS011;68;48.792;9.164;2023-05-29T13:44:40;18.17;;;4.97;;
151;SDS011;68;48.792;9.164;2023-05-29T13:47:07;18.77;;;5.10;;
151;SDS011;68;48.792;9.164;2023-05-29T13:49:35;18.60;;;5.43;;
151;SDS011;68;48.792;9.164;2023-05-29T13:52:02;18.10;;;5.33;;
151;SDS011;68;48.792;9.164;2023-05-29T13:54:29;16.93;;;4.80;;
151;SDS011;68;48.792;9.164;2023-05-29T13:57:00;18.07;;;5.73;;
151;SDS011;68;48.792;9.164;2023-05-29T13:59:28;18.03;;;4.83;;
151;SDS011;68;48.792;9.164;2023-05-29T14:01:55;18.60;;;5.57;;
151;SDS011;68;48.792;9.164;2023-05-29T14:04:22;19.33;;;5.50;;
151;SDS011;68;48.792;9.164;2023-05-29T14:06:50;17.27;;;5.00;;
151;SDS011;68;48.792;9.164;2023-05-29T14:09:17;23.80;;;5.27;;
151;SDS011;68;48.792;9.164;2023-05-29T14:11:51;17.97;;;5.00;;
151;SDS011;68;48.792;9.164;2023-05-29T14:14:18;17.30;;;5.03;;
151;SDS011;68;48.792;9.164;2023-05-29T14:16:44;16.50;;;4.80;;
151;SDS011;68;48.792;9.164;2023-05-29T14:19:11;19.00;;;4.97;;
151;SDS011;68;48.792;9.164;2023-05-29T14:21:38;20.27;;;5.40;;
151;SDS011;68;48.792;9.164;2023-05-29T14:24:06;18.07;;;5.00;;
151;SDS011;68;48.792;9.164;2023-05-29T14:26:33;20.50;;;5.10;;
151;SDS011;68;48.792;9.164;2023-05-29T14:29:00;18.50;;;5.13;;
151;SDS011;68;48.792;9.164;2023-05-29T14:31:27;17.77;;;5.43;;
151;SDS011;68;48.792;9.164;2023-05-29T14:33:54;17.77;;;4.90;;
151;SDS011;68;48.792;9.164;2023-05-29T14:36:20;17.17;;;5.23;;
151;SDS011;68;48.792;9.164;2023-05-29T14:38:47;18.50;;;5.73;;
151;SDS011;68;48.792;9.164;2023-05-29T14:41:16;17.40;;;5.13;;
151;SDS011;68;48.792;9.164;2023-05-29T14:43:42;18.90;;;5.33;;
151;SDS011;68;48.792;9.164;2023-05-29T14:46:09;20.10;;;5.43;;
151;SDS011;68;48.792;9.164;2023-05-29T14:48:36;17.70;;;5.27;;
151;SDS011;68;48.792;9.164;2023-05-29T14:51:03;20.30;;;5.30;;
151;SDS011;68;48.792;9.164;2023-05-29T14:53:30;18.77;;;5.13;;
151;SDS011;68;48.792;9.164;2023-05-29T14:55:57;17.43;;;5.03;;
151;SDS011;68;48.792;9.164;2023-05-29T14:58:26;17.77;;;5.17;;
151;SDS011;68;48.792;9.164;2023-05-29T15:00:52;17.30;;;4.83;;
151;SDS011;68;48.792;9.164;2023-05-29T15:03:19;18.10;;;5.33;;
151;SDS011;68;48.792;9.164;2023-05-29T15:05:50;19.60;;;4.90;;
151;SDS011;68;48.792;9.164;2023-05-29T15:08:16;21.20;;;5.20;;
151;SDS011;68;48.792;9.164;2023-05-29T15:10:43;16.93;;;5.20;;
151;SDS011;68;48.792;9.164;2023-05-29T15:13:10;18.73;;;5.27;;
151;SDS011;68;48.792;9.164;2023-05-29T15:15:38;18.97;;;4.77;;
151;SDS011;68;48.792;9.164;2023-05-29T15:18:05;19.80;;;5.10;;
151;SDS011;68;48.792;9.164;2023-05-29T15:20:32;22.90;;;5.20;;
151;SDS011;68;48.792;9.164;2023-05-29T15:22:59;17.90;;;5.13;;
151;SDS011;68;48.792;9.164;2023-05-29T15:25:26;16.97;;;5.27;;
151;SDS011;68;48.792;9.164;2023-05-29T15:27:52;20.73;;;5.50;;
151;SDS011;68;48.792;9.164;2023-05-29T15:30:20;18.13;;;5.63;;
151;SDS011;68;48.792;9.164;2023-05-29T15:32:49;18.93;;;4.77;;
151;SDS011;68;48.792;9.164;2023-05-29T15:35:15;19.60;;;4.63;;
151;SDS011;68;48.792;9.164;2023-05-29T15:37:43;17.53;;;4.63;;
151;SDS011;68;48.792;9.164;2023-05-29T15:40:10;16.20;;;4.60;;
151;SDS011;68;48.792;9.164;2023-05-29T15:42:37;16.87;;;4.90;;
151;SDS011;68;48.792;9.164;2023-05-29T15:45:04;17.50;;;4.90;;
151;SDS011;68;48.792;9.164;2023-05-29T15:47:32;19.80;;;5.20;;
151;SDS011;68;48.792;9.164;2023-05-29T15:50:00;18.27;;;5.47;;
151;SDS011;68;48.792;9.164;2023-05-29T15:52:27;19.30;;;4.93;;
151;SDS011;68;48.792;9.164;2023-05-29T15:54:53;27.83;;;5.30;;
151;SDS011;68;48.792;9.164;2023-05-29T15:57:20;18.80;;;5.07;;